createdAt,value
2023-01-23T00:01:12.633Z,31.25
2023-01-23T00:03:39.413Z,36.05
2023-01-23T00:06:10.105Z,36.53
2023-01-23T00:08:37.141Z,38.28
2023-01-23T00:11:09.018Z,42.20
2023-01-23T00:13:36.200Z,36.67
2023-01-23T00:16:11.004Z,35.78
2023-01-23T00:18:38.064Z,38.20
2023-01-23T00:21:06.548Z,37.55
2023-01-23T00:23:34.428Z,38.22
2023-01-23T00:26:05.628Z,40.33
2023-01-23T00:28:32.790Z,45.33
2023-01-23T00:31:25.524Z,38.65
2023-01-23T00:33:57.773Z,37.03
2023-01-23T00:36:27.739Z,45.88
2023-01-23T00:38:54.531Z,51.83
2023-01-23T00:41:21.439Z,43.42
2023-01-23T00:43:48.527Z,47.08
2023-01-23T00:46:15.512Z,49.03
2023-01-23T00:48:42.290Z,43.88
2023-01-23T00:51:09.304Z,43.67
2023-01-23T00:53:36.118Z,45.03
2023-01-23T00:56:02.917Z,39.20
2023-01-23T00:58:29.711Z,37.50
2023-01-23T01:00:56.464Z,47.75
2023-01-23T01:03:25.209Z,42.25
2023-01-23T01:05:52.702Z,39.45
2023-01-23T01:08:20.050Z,44.92
2023-01-23T01:10:46.818Z,40.00
2023-01-23T01:13:14.507Z,43.40
2023-01-23T01:15:41.382Z,39.42
2023-01-23T01:18:08.170Z,40.60
2023-01-23T01:20:34.896Z,50.47
2023-01-23T01:23:01.857Z,36.35
2023-01-23T01:25:30.297Z,43.53
2023-01-23T01:27:57.188Z,35.85
2023-01-23T01:30:27.143Z,40.00
2023-01-23T01:32:54.964Z,41.42
2023-01-23T01:35:22.535Z,36.75
2023-01-23T01:37:49.903Z,32.75
2023-01-23T01:40:23.935Z,42.00
2023-01-23T01:42:56.209Z,41.45
2023-01-23T01:46:00.908Z,41.15
2023-01-23T01:48:33.252Z,37.08
2023-01-23T01:51:02.235Z,39.67
2023-01-23T01:53:30.908Z,37.08
2023-01-23T01:55:58.398Z,38.63
2023-01-23T01:58:26.360Z,40.83
2023-01-23T02:00:53.482Z,39.75
2023-01-23T02:03:20.622Z,41.08
2023-01-23T02:05:49.911Z,38.05
2023-01-23T02:08:54.687Z,31.80
2023-01-23T02:11:21.497Z,39.10
2023-01-23T02:13:48.263Z,32.42
2023-01-23T02:16:23.572Z,35.97
2023-01-23T02:18:53.866Z,38.50
2023-01-23T02:21:25.086Z,34.75
2023-01-23T02:24:04.247Z,37.95
2023-01-23T02:26:37.794Z,38.10
2023-01-23T02:29:05.539Z,33.25
2023-01-23T02:31:32.543Z,36.33
2023-01-23T02:34:00.244Z,35.13
2023-01-23T02:36:29.918Z,33.42
2023-01-23T02:39:13.584Z,36.55
2023-01-23T02:41:46.305Z,26.65
2023-01-23T02:44:26.499Z,34.28
2023-01-23T02:46:57.938Z,34.15
2023-01-23T02:49:24.780Z,31.85
2023-01-23T02:51:53.607Z,31.92
2023-01-23T02:54:21.176Z,28.45
2023-01-23T02:56:47.948Z,27.27
2023-01-23T02:59:33.843Z,27.63
2023-01-23T03:02:00.743Z,38.38
2023-01-23T03:04:27.518Z,38.42
2023-01-23T03:06:54.287Z,33.13
2023-01-23T03:09:21.065Z,39.10
2023-01-23T03:11:47.831Z,33.40
2023-01-23T03:14:18.300Z,36.22
2023-01-23T03:16:50.283Z,37.05
2023-01-23T03:19:18.742Z,39.53
2023-01-23T03:21:45.965Z,35.17
2023-01-23T03:24:14.194Z,35.90
2023-01-23T03:26:42.591Z,41.35
2023-01-23T03:29:36.093Z,34.15
2023-01-23T03:32:03.624Z,40.00
2023-01-23T03:34:30.569Z,38.28
2023-01-23T03:36:58.315Z,34.83
2023-01-23T03:39:44.061Z,29.70
2023-01-23T03:42:10.780Z,34.17
2023-01-23T03:44:37.663Z,40.55
2023-01-23T03:47:05.024Z,30.83
2023-01-23T03:49:32.031Z,33.80
2023-01-23T03:51:59.405Z,37.25
2023-01-23T03:54:26.420Z,38.13
2023-01-23T03:56:53.557Z,38.15
2023-01-23T03:59:20.223Z,35.17
2023-01-23T04:01:47.974Z,36.95
2023-01-23T04:04:14.870Z,38.17
2023-01-23T04:06:41.567Z,35.72
2023-01-23T04:09:08.596Z,37.80
2023-01-23T04:11:35.345Z,33.80
2023-01-23T04:14:02.039Z,40.20
2023-01-23T04:16:28.839Z,38.28
2023-01-23T04:18:55.836Z,38.28
2023-01-23T04:21:23.074Z,31.27
2023-01-23T04:23:50.084Z,33.70
2023-01-23T04:26:16.797Z,33.95
2023-01-23T04:28:43.506Z,33.92
2023-01-23T04:31:10.355Z,41.67
2023-01-23T04:33:37.068Z,34.38
2023-01-23T04:36:05.668Z,34.92
2023-01-23T04:38:33.253Z,32.40
2023-01-23T04:41:00.294Z,38.63
2023-01-23T04:43:27.204Z,31.98
2023-01-23T04:45:56.682Z,38.58
2023-01-23T04:48:24.412Z,39.10
2023-01-23T04:50:51.512Z,35.42
2023-01-23T04:53:18.904Z,39.17
2023-01-23T04:55:48.340Z,34.00
2023-01-23T04:58:15.917Z,25.55
2023-01-23T05:00:42.627Z,36.08
2023-01-23T05:03:09.430Z,34.85
2023-01-23T05:05:36.146Z,34.03
2023-01-23T05:08:03.532Z,36.30
2023-01-23T05:10:30.352Z,39.03
2023-01-23T05:12:57.111Z,35.58
2023-01-23T05:15:23.868Z,34.58
2023-01-23T05:17:50.605Z,38.08
2023-01-23T05:20:18.081Z,36.97
2023-01-23T05:22:54.044Z,34.25
2023-01-23T05:25:27.132Z,37.80
2023-01-23T05:27:54.613Z,39.75
2023-01-23T05:30:22.805Z,36.38
2023-01-23T05:32:49.538Z,32.55
2023-01-23T05:35:16.871Z,32.50
2023-01-23T05:37:43.670Z,41.05
2023-01-23T05:40:13.158Z,40.03
2023-01-23T05:42:39.951Z,41.30
2023-01-23T05:45:07.594Z,30.45
2023-01-23T05:47:34.469Z,32.90
2023-01-23T05:50:01.344Z,36.78
2023-01-23T05:52:28.289Z,31.92
2023-01-23T05:54:55.108Z,39.30
2023-01-23T05:57:22.275Z,31.15
2023-01-23T05:59:49.003Z,31.25
2023-01-23T06:02:15.950Z,31.48
2023-01-23T06:04:42.801Z,33.47
2023-01-23T06:07:17.580Z,32.70
2023-01-23T06:09:44.368Z,27.98
2023-01-23T06:12:11.913Z,29.83
2023-01-23T06:14:38.844Z,36.40
2023-01-23T06:17:06.805Z,28.92
2023-01-23T06:19:33.584Z,29.48
2023-01-23T06:22:00.507Z,31.23
2023-01-23T06:24:27.275Z,42.85
2023-01-23T06:26:54.064Z,28.02
2023-01-23T06:29:20.973Z,26.50
2023-01-23T06:31:47.830Z,24.73
2023-01-23T06:34:15.396Z,25.33
2023-01-23T06:36:42.331Z,27.77
2023-01-23T06:39:13.398Z,23.58
2023-01-23T06:41:40.119Z,25.48
2023-01-23T06:44:07.767Z,25.30
2023-01-23T06:46:35.005Z,22.45
2023-01-23T06:49:04.478Z,17.58
2023-01-23T06:51:33.696Z,21.17
2023-01-23T06:54:00.734Z,20.27
2023-01-23T06:56:27.774Z,23.15
2023-01-23T06:58:54.490Z,28.90
2023-01-23T07:01:21.562Z,22.75
2023-01-23T07:03:48.655Z,21.92
2023-01-23T07:06:16.522Z,22.27
2023-01-23T07:08:43.269Z,21.30
2023-01-23T07:11:10.549Z,24.25
2023-01-23T07:13:37.815Z,26.77
2023-01-23T07:16:04.946Z,20.20
2023-01-23T07:18:32.761Z,28.13
2023-01-23T07:20:59.531Z,28.23
2023-01-23T07:23:26.386Z,23.13
2023-01-23T07:25:59.675Z,25.33
2023-01-23T07:28:26.997Z,25.17
2023-01-23T07:30:53.784Z,28.48
2023-01-23T07:33:20.673Z,33.28
2023-01-23T07:35:47.533Z,28.55
2023-01-23T07:38:14.339Z,32.63
2023-01-23T07:40:42.923Z,39.60
2023-01-23T07:43:09.909Z,34.22
2023-01-23T07:45:37.776Z,34.88
2023-01-23T07:48:04.849Z,30.45
2023-01-23T07:50:31.715Z,34.38
2023-01-23T07:52:58.596Z,31.00
2023-01-23T07:55:25.357Z,32.58
2023-01-23T07:57:52.186Z,33.58
2023-01-23T08:00:19.627Z,29.98
2023-01-23T08:02:46.753Z,30.83
2023-01-23T08:05:13.466Z,28.63
2023-01-23T08:07:40.495Z,33.88
2023-01-23T08:10:08.265Z,33.33
2023-01-23T08:12:35.162Z,34.13
2023-01-23T08:15:01.916Z,43.40
2023-01-23T08:17:28.696Z,35.35
2023-01-23T08:19:55.438Z,35.95
2023-01-23T08:22:23.296Z,30.52
2023-01-23T08:24:50.038Z,34.72
2023-01-23T08:27:16.888Z,37.92
2023-01-23T08:29:43.915Z,37.65
2023-01-23T08:32:10.980Z,30.60
2023-01-23T08:34:37.968Z,36.40
2023-01-23T08:37:07.500Z,37.38
2023-01-23T08:39:35.408Z,35.50
2023-01-23T08:42:02.210Z,36.95
2023-01-23T08:44:31.269Z,31.92
2023-01-23T08:46:58.072Z,31.52
2023-01-23T08:49:24.888Z,37.80
2023-01-23T08:51:51.696Z,36.58
2023-01-23T08:54:18.551Z,30.13
2023-01-23T08:56:45.335Z,35.85
2023-01-23T08:59:12.201Z,41.05
2023-01-23T09:01:39.271Z,35.40
2023-01-23T09:04:06.053Z,35.30
2023-01-23T09:06:32.764Z,37.30
2023-01-23T09:08:59.495Z,31.25
2023-01-23T09:11:29.367Z,45.25
2023-01-23T09:13:56.402Z,35.88
2023-01-23T09:16:23.174Z,39.47
2023-01-23T09:18:49.980Z,33.88
2023-01-23T09:21:17.703Z,37.95
2023-01-23T09:23:45.567Z,36.13
2023-01-23T09:26:14.141Z,37.70
2023-01-23T09:28:42.848Z,34.72
2023-01-23T09:31:13.720Z,40.30
2023-01-23T09:33:41.294Z,32.70
2023-01-23T09:36:09.216Z,31.77
2023-01-23T09:38:36.280Z,27.88
2023-01-23T09:41:17.772Z,29.20
2023-01-23T09:43:52.147Z,28.58
2023-01-23T09:46:26.904Z,31.98
2023-01-23T09:49:09.936Z,34.78
2023-01-23T09:51:42.553Z,29.63
2023-01-23T09:54:40.709Z,25.15
2023-01-23T09:57:13.633Z,31.23
2023-01-23T09:59:58.430Z,32.35
2023-01-23T10:02:27.298Z,33.40
2023-01-23T10:04:56.129Z,29.05
2023-01-23T10:07:48.469Z,27.13
2023-01-23T10:10:43.159Z,28.55
2023-01-23T10:13:32.452Z,29.25
2023-01-23T10:16:38.250Z,23.38
2023-01-23T10:19:54.007Z,30.98
2023-01-23T10:22:39.078Z,29.02
2023-01-23T10:25:21.656Z,32.30
2023-01-23T10:27:51.143Z,32.35
2023-01-23T10:30:20.185Z,34.75
2023-01-23T10:33:10.083Z,26.52
2023-01-23T10:35:50.706Z,33.28
2023-01-23T10:38:27.685Z,33.17
2023-01-23T10:41:14.784Z,33.10
2023-01-23T10:43:43.058Z,30.98
2023-01-23T10:46:15.916Z,30.35
2023-01-23T10:48:48.888Z,33.53
2023-01-23T10:51:42.574Z,28.05
2023-01-23T10:54:29.633Z,33.45
2023-01-23T10:57:20.751Z,30.92
2023-01-23T10:59:50.551Z,29.17
2023-01-23T11:02:27.561Z,27.50
2023-01-23T11:04:54.514Z,24.20
2023-01-23T11:07:28.816Z,33.63
2023-01-23T11:09:57.209Z,31.92
2023-01-23T11:12:27.222Z,34.40
2023-01-23T11:15:26.458Z,32.70
2023-01-23T11:17:58.551Z,27.90
2023-01-23T11:20:27.959Z,32.28
2023-01-23T11:23:14.713Z,27.60
2023-01-23T11:25:46.615Z,28.13
2023-01-23T11:28:27.265Z,29.17
2023-01-23T11:31:11.514Z,30.08
2023-01-23T11:33:47.600Z,32.47
2023-01-23T11:36:17.362Z,28.73
2023-01-23T11:38:52.934Z,28.63
2023-01-23T11:41:29.068Z,30.48
2023-01-23T11:43:56.223Z,27.35
2023-01-23T11:46:28.834Z,31.40
2023-01-23T11:49:07.279Z,31.05
2023-01-23T11:51:50.609Z,25.00
2023-01-23T11:54:23.199Z,25.85
2023-01-23T11:57:02.381Z,26.35
2023-01-23T11:59:50.771Z,38.28
2023-01-23T12:02:23.557Z,28.75
2023-01-23T12:05:08.385Z,27.33
2023-01-23T12:07:47.826Z,26.00
2023-01-23T12:10:30.408Z,27.42
2023-01-23T12:13:16.774Z,31.02
2023-01-23T12:15:45.968Z,30.83
2023-01-23T12:18:47.089Z,25.95
2023-01-23T12:21:30.867Z,32.60
2023-01-23T12:24:16.751Z,26.45
2023-01-23T12:27:12.615Z,29.05
2023-01-23T12:29:52.041Z,23.80
2023-01-23T12:32:41.466Z,30.35
2023-01-23T12:35:20.217Z,25.75
2023-01-23T12:38:03.807Z,28.58
2023-01-23T12:41:03.321Z,35.63
2023-01-23T12:43:54.999Z,28.27
2023-01-23T12:46:36.660Z,24.38
2023-01-23T12:49:13.931Z,26.42
2023-01-23T12:51:45.922Z,32.88
2023-01-23T12:54:30.623Z,26.83
2023-01-23T12:56:58.513Z,30.13
2023-01-23T12:59:37.270Z,25.10
2023-01-23T13:02:25.190Z,30.30
2023-01-23T13:05:22.387Z,32.10
2023-01-23T13:07:56.978Z,31.60
2023-01-23T13:11:24.554Z,37.22
2023-01-23T13:13:51.483Z,27.02
2023-01-23T13:16:19.792Z,33.25
2023-01-23T13:19:19.877Z,25.23
2023-01-23T13:22:27.784Z,26.23
2023-01-23T13:25:17.339Z,33.88
2023-01-23T13:27:49.585Z,30.70
2023-01-23T13:30:42.749Z,25.85
2023-01-23T13:33:15.435Z,29.92
2023-01-23T13:35:44.937Z,27.85
2023-01-23T13:38:29.402Z,34.63
2023-01-23T13:41:04.981Z,28.15
2023-01-23T13:43:46.446Z,30.25
2023-01-23T13:46:23.725Z,28.67
2023-01-23T14:21:41.857Z,23.67
2023-01-23T14:24:26.446Z,21.25
2023-01-23T14:27:07.277Z,22.73
2023-01-23T14:29:35.212Z,23.60
2023-01-23T14:32:02.281Z,21.63
2023-01-23T14:34:29.441Z,23.95
2023-01-23T14:37:10.667Z,24.02
2023-01-23T14:39:38.950Z,25.42
2023-01-23T14:42:11.590Z,25.38
2023-01-23T14:44:47.030Z,26.00
2023-01-23T14:47:23.396Z,25.92
2023-01-23T14:49:50.614Z,24.48
2023-01-23T14:52:31.363Z,27.95
2023-01-23T14:55:07.220Z,24.00
2023-01-23T14:57:36.102Z,24.50
2023-01-23T15:00:03.588Z,24.17
2023-01-23T15:02:33.945Z,28.02
2023-01-23T15:05:30.423Z,21.23
2023-01-23T15:08:00.126Z,22.40
2023-01-23T15:10:45.500Z,22.58
2023-01-23T15:13:13.966Z,28.42
2023-01-23T15:15:46.733Z,21.67
2023-01-23T15:18:27.619Z,20.30
2023-01-23T15:21:08.210Z,20.13
2023-01-23T15:23:38.654Z,24.02
2023-01-23T15:26:38.513Z,24.77
2023-01-23T15:29:11.126Z,24.05
2023-01-23T15:31:40.959Z,22.75
2023-01-23T15:34:26.338Z,23.02
2023-01-23T15:37:11.244Z,19.92
2023-01-23T15:39:49.897Z,19.70
2023-01-23T15:42:16.571Z,52.63
2023-01-23T15:44:44.128Z,20.90
2023-01-23T15:47:11.387Z,25.00
2023-01-23T15:49:40.413Z,26.42
2023-01-23T15:52:19.107Z,21.73
2023-01-23T15:54:45.997Z,26.80
2023-01-23T15:57:13.318Z,26.92
2023-01-23T15:59:40.359Z,22.80
2023-01-23T16:02:29.110Z,30.52
2023-01-23T16:04:57.191Z,25.13
2023-01-23T16:07:31.345Z,22.40
2023-01-23T16:09:58.306Z,26.15
2023-01-23T16:12:28.885Z,26.65
2023-01-23T16:14:56.352Z,22.08
2023-01-23T16:17:23.332Z,27.02
2023-01-23T16:19:50.754Z,21.83
2023-01-23T16:22:29.352Z,20.95
2023-01-23T16:24:57.808Z,24.23
2023-01-23T16:27:27.784Z,24.73
2023-01-23T16:29:55.510Z,25.13
2023-01-23T16:32:22.576Z,24.73
2023-01-23T16:34:49.458Z,21.20
2023-01-23T16:37:18.189Z,24.85
2023-01-23T16:39:46.388Z,21.98
2023-01-23T16:42:18.987Z,22.20
2023-01-23T16:44:45.895Z,23.48
2023-01-23T16:47:12.571Z,22.80
2023-01-23T16:49:51.396Z,23.85
2023-01-23T16:52:20.614Z,25.13
2023-01-23T16:54:47.554Z,24.35
2023-01-23T16:57:19.738Z,20.63
2023-01-23T16:59:47.462Z,24.25
2023-01-23T17:02:21.910Z,32.65
2023-01-23T17:04:48.902Z,24.55
2023-01-23T17:07:17.665Z,24.58
2023-01-23T17:09:45.650Z,25.17
2023-01-23T17:12:16.720Z,24.48
2023-01-23T17:14:44.945Z,19.10
2023-01-23T17:17:16.295Z,26.50
2023-01-23T17:19:43.876Z,26.27
2023-01-23T17:22:26.160Z,24.25
2023-01-23T17:24:53.140Z,23.23
2023-01-23T17:27:19.847Z,26.75
2023-01-23T17:29:46.660Z,25.25
2023-01-23T17:32:49.108Z,25.60
2023-01-23T17:35:24.438Z,28.40
2023-01-23T17:37:52.166Z,25.00
2023-01-23T17:40:19.357Z,25.17
2023-01-23T17:42:46.107Z,29.15
2023-01-23T17:45:18.805Z,27.80
2023-01-23T17:47:52.865Z,23.17
2023-01-23T17:50:22.380Z,23.52
2023-01-23T17:52:50.734Z,27.45
2023-01-23T17:55:20.067Z,24.27
2023-01-23T17:57:46.806Z,26.95
2023-01-23T18:00:18.626Z,25.25
2023-01-23T18:02:56.221Z,26.90
2023-01-23T18:05:23.117Z,26.80
2023-01-23T18:07:54.185Z,28.67
2023-01-23T18:10:22.260Z,33.30
2023-01-23T18:13:04.783Z,27.70
2023-01-23T18:15:31.472Z,29.45
2023-01-23T18:18:04.304Z,29.13
2023-01-23T18:20:32.774Z,28.75
2023-01-23T18:22:59.979Z,24.73
2023-01-23T18:25:27.205Z,29.17
2023-01-23T18:27:56.006Z,31.60
2023-01-23T18:30:34.606Z,25.17
2023-01-23T18:33:31.732Z,26.70
2023-01-23T18:36:13.180Z,27.05
2023-01-23T18:38:58.002Z,28.98
2023-01-23T18:41:27.374Z,35.15
2023-01-23T18:44:16.046Z,34.53
2023-01-23T18:46:42.959Z,37.80
2023-01-23T18:49:13.453Z,28.65
2023-01-23T18:51:41.709Z,35.97
2023-01-23T18:54:32.996Z,36.20
2023-01-23T18:57:14.763Z,33.58
2023-01-23T18:59:50.474Z,30.15
2023-01-23T19:02:35.904Z,29.65
2023-01-23T19:05:22.272Z,38.88
2023-01-23T19:07:50.153Z,31.83
2023-01-23T19:10:22.786Z,35.03
2023-01-23T19:13:01.103Z,33.95
2023-01-23T19:16:01.725Z,33.50
2023-01-23T19:18:47.712Z,40.13
2023-01-23T19:21:20.934Z,37.05
2023-01-23T19:23:54.610Z,43.08
2023-01-23T19:26:21.909Z,35.38
2023-01-23T19:28:49.029Z,40.53
2023-01-23T19:31:23.739Z,41.17
2023-01-23T19:33:51.384Z,36.00
2023-01-23T19:36:18.982Z,37.88
2023-01-23T19:38:46.214Z,44.72
2023-01-23T19:41:20.259Z,42.85
2023-01-23T19:43:52.971Z,42.75
2023-01-23T19:46:21.481Z,50.67
2023-01-23T19:48:48.388Z,42.58
2023-01-23T19:51:18.076Z,45.95
2023-01-23T19:53:45.768Z,46.58
2023-01-23T19:56:14.588Z,56.92
2023-01-23T19:58:41.813Z,44.42
2023-01-23T20:01:21.888Z,47.15
2023-01-23T20:03:49.407Z,40.40
2023-01-23T20:06:16.107Z,37.70
2023-01-23T20:08:43.187Z,50.15
2023-01-23T20:11:11.686Z,45.20
2023-01-23T20:13:40.951Z,47.03
2023-01-23T20:16:20.253Z,48.85
2023-01-23T20:18:50.911Z,50.00
2023-01-23T20:21:19.471Z,53.33
2023-01-23T20:23:46.956Z,45.33
2023-01-23T20:26:15.064Z,46.85
2023-01-23T20:28:41.929Z,41.45
2023-01-23T20:31:13.230Z,48.03
2023-01-23T20:33:40.486Z,40.65
2023-01-23T20:36:08.186Z,49.05
2023-01-23T20:38:34.987Z,54.42
2023-01-23T20:41:06.889Z,45.08
2023-01-23T20:43:34.897Z,40.95
2023-01-23T20:46:04.408Z,44.15
2023-01-23T20:48:34.201Z,47.55
2023-01-23T20:51:01.110Z,49.90
2023-01-23T20:53:30.738Z,42.95
2023-01-23T20:56:00.997Z,46.95
2023-01-23T20:58:46.969Z,48.47
2023-01-23T21:01:13.973Z,43.85
2023-01-23T21:03:41.601Z,38.08
2023-01-23T21:06:09.529Z,43.75
2023-01-23T21:08:36.901Z,46.40
2023-01-23T21:11:08.736Z,46.40
2023-01-23T21:13:36.523Z,44.10
2023-01-23T21:16:09.114Z,46.42
2023-01-23T21:18:38.077Z,37.72
2023-01-23T21:21:07.196Z,45.70
2023-01-23T21:23:36.086Z,42.00
2023-01-23T21:26:03.923Z,47.80
2023-01-23T21:28:33.235Z,46.45
2023-01-23T21:31:00.106Z,46.10
2023-01-23T21:33:26.955Z,51.35
2023-01-23T21:35:54.627Z,42.97
2023-01-23T21:38:22.872Z,47.92
2023-01-23T21:40:49.624Z,48.80
2023-01-23T21:43:16.474Z,43.15
2023-01-23T21:45:43.192Z,46.47
2023-01-23T21:48:11.054Z,48.15
2023-01-23T21:50:37.774Z,43.42
2023-01-23T21:53:04.631Z,39.33
2023-01-23T21:55:31.373Z,42.00
2023-01-23T21:57:58.162Z,42.75
2023-01-23T22:00:43.344Z,42.38
2023-01-23T22:03:10.124Z,42.70
2023-01-23T22:05:36.908Z,40.70
2023-01-23T22:08:04.625Z,39.85
2023-01-23T22:10:31.948Z,46.72
2023-01-23T22:12:58.743Z,48.40
2023-01-23T22:15:25.579Z,52.65
2023-01-23T22:17:52.352Z,33.60
2023-01-23T22:20:19.264Z,49.42
2023-01-23T22:22:45.976Z,42.30
2023-01-23T22:25:12.746Z,43.90
2023-01-23T22:27:39.527Z,37.72
2023-01-23T22:30:06.838Z,44.85
2023-01-23T22:32:34.576Z,55.50
2023-01-23T22:35:01.323Z,36.45
2023-01-23T22:37:29.528Z,39.42
2023-01-23T22:39:56.408Z,45.90
2023-01-23T22:42:23.243Z,48.17
2023-01-23T22:44:49.939Z,38.63
2023-01-23T22:47:16.665Z,42.50
2023-01-23T22:49:43.994Z,44.92
2023-01-23T22:52:10.722Z,37.38
2023-01-23T22:54:37.432Z,47.38
2023-01-23T22:57:04.158Z,46.35
2023-01-23T22:59:30.848Z,44.08
2023-01-23T23:01:57.591Z,46.42
2023-01-23T23:04:24.389Z,39.70
2023-01-23T23:06:51.090Z,45.25
2023-01-23T23:09:17.857Z,45.15
2023-01-23T23:11:47.375Z,40.67
2023-01-23T23:14:14.162Z,49.90
2023-01-23T23:16:41.183Z,43.42
2023-01-23T23:19:09.334Z,43.17
2023-01-23T23:21:37.236Z,46.78
2023-01-23T23:24:07.563Z,43.10
2023-01-23T23:26:34.935Z,41.78
2023-01-23T23:29:02.725Z,41.03
2023-01-23T23:31:30.276Z,42.25
2023-01-23T23:33:57.204Z,40.97
2023-01-23T23:36:24.000Z,39.05
2023-01-23T23:38:50.876Z,45.10
2023-01-23T23:41:18.205Z,53.53
2023-01-23T23:43:45.315Z,44.78
2023-01-23T23:46:13.569Z,39.17
2023-01-23T23:48:40.771Z,41.33
2023-01-23T23:51:09.316Z,46.45
2023-01-23T23:53:36.590Z,45.03
2023-01-23T23:56:04.386Z,41.78
2023-01-23T23:58:31.411Z,42.03
